»·PEaware :: N717TB KPRC-E68

N717TB :: KPRC-E68

FLIGHT INFORMATION

Flight Status: Arrived
Operator: Privately registered:
United States
More flights under this callsign
Pilot: Joseph L. (25207)
Aircraft: SOCATA TBM-900
(TBM9)
More flights by this aircraft type
Origin: KPRC Love
United States
Destination: E68 Estrella Sailport
United States
More flights between these airports :: More routes between these airports
Route:
File this flight plan on PilotEdge
Remarks:
Altitude:
(Current/Filed)
13,500ft
Speed:
(Current/Filed)
200kts
Departed: 08-Oct-19 07:42 AM
Arrived: 08-Oct-19 08:18 AM
Distance/Time
Traveled:
95nm/0:36
Distance/Time
To Go:
Arrived

Flight Plot

Page will automatically refresh every two minutes.

Flight plan parsing failed; only flown route is shown


Map Options




Map Legend


Flown Route
Filed Route
Departure Airport
Arrival Airport
Navaid (VOR, NDB)
Fix

Horizontal Profiles

Position Reports

Time Latitude Longitude Heading Altitude Ground
Speed
08-Oct-19 07:28 34.655204 -112.421473 310 4985ft 0kts
08-Oct-19 07:29 34.655204 -112.421473 310 4985ft 0kts
08-Oct-19 07:30 34.655204 -112.421473 310 4985ft 0kts
08-Oct-19 07:31 34.655204 -112.421473 310 4985ft 0kts
08-Oct-19 07:32 34.655204 -112.421474 310 4985ft 0kts
08-Oct-19 07:33 34.655204 -112.421474 310 4985ft 0kts
08-Oct-19 07:34 34.655204 -112.421474 310 4985ft 0kts
08-Oct-19 07:35 34.655204 -112.421474 310 4985ft 0kts
08-Oct-19 07:37 34.655522 -112.421402 65 4984ft 8kts
08-Oct-19 07:38 34.656219 -112.419110 40 4978ft 12kts
08-Oct-19 07:39 34.659066 -112.416056 43 4961ft 16kts
08-Oct-19 07:40 34.662014 -112.412986 38 4946ft 13kts
08-Oct-19 07:41 34.662653 -112.412064 129 4943ft 2kts
08-Oct-19 07:42 34.656184 -112.417685 220 4979ft 108kts
08-Oct-19 07:43 34.625223 -112.436317 202 6251ft 154kts
08-Oct-19 07:44 34.587797 -112.456321 207 8208ft 158kts
08-Oct-19 07:45 34.550681 -112.476871 209 10357ft 148kts
08-Oct-19 07:46 34.515348 -112.496447 206 12312ft 142kts
08-Oct-19 07:47 34.476761 -112.517741 207 13527ft 177kts
08-Oct-19 07:48 34.423861 -112.546890 206 13506ft 223kts
08-Oct-19 07:49 34.369010 -112.577073 206 13495ft 235kts
08-Oct-19 07:50 34.311146 -112.608879 206 13494ft 246kts
08-Oct-19 07:51 34.251719 -112.641493 206 13492ft 249kts
08-Oct-19 07:52 34.192095 -112.674170 206 13438ft 251kts
08-Oct-19 07:53 34.131946 -112.707080 206 13358ft 252kts
08-Oct-19 07:54 34.071012 -112.740368 206 13283ft 252kts
08-Oct-19 07:55 34.011039 -112.773078 206 13284ft 250kts
08-Oct-19 07:56 33.947759 -112.796469 186 13300ft 254kts
08-Oct-19 07:56 33.894492 -112.799460 186 13289ft 254kts
08-Oct-19 07:58 33.811283 -112.804216 186 13291ft 255kts
08-Oct-19 07:59 33.741149 -112.808223 186 13291ft 256kts
08-Oct-19 07:59 33.684269 -112.811468 186 13291ft 256kts
08-Oct-19 08:00 33.614882 -112.815421 186 13291ft 256kts
08-Oct-19 08:02 33.532587 -112.820100 186 13290ft 257kts
08-Oct-19 08:02 33.474033 -112.823424 186 13290ft 257kts
08-Oct-19 08:03 33.404458 -112.809724 170 13291ft 262kts
08-Oct-19 08:05 33.324473 -112.785422 170 13289ft 261kts
08-Oct-19 08:05 33.282394 -112.739832 106 13313ft 281kts
08-Oct-19 08:06 33.258178 -112.658012 117 12279ft 251kts
08-Oct-19 08:07 33.230747 -112.578637 115 10088ft 256kts
08-Oct-19 08:08 33.203605 -112.500277 113 8036ft 249kts
08-Oct-19 08:09 33.157798 -112.449609 157 6134ft 236kts
08-Oct-19 08:10 33.102616 -112.421108 157 5379ft 192kts
08-Oct-19 08:11 33.089612 -112.373436 78 4968ft 163kts
08-Oct-19 08:12 33.086955 -112.323351 94 4988ft 158kts
08-Oct-19 08:13 33.082347 -112.271271 94 4293ft 158kts
08-Oct-19 08:14 33.078460 -112.227539 95 2462ft 115kts
08-Oct-19 08:15 33.078457 -112.190681 80 1688ft 104kts
08-Oct-19 08:16 33.085303 -112.161108 70 1266ft 65kts
08-Oct-19 08:17 33.085947 -112.158082 253 1261ft 11kts
08-Oct-19 08:18 33.084949 -112.160885 250 1265ft 1kts
08-Oct-19 08:19 33.085016 -112.161009 342 1265ft 0kts

Navigation Log

Ident Type
Flight plan parsing failed, navigation log unavailable